TimeEST,TemperatureF,Dew PointF,Humidity,Sea Level PressureIn,VisibilityMPH,Wind Direction,Wind SpeedMPH,Gust SpeedMPH,PrecipitationIn,Events,Conditions,WindDirDegrees,DateUTC
12:45 AM,-43.6,-43.6,100,-9999,0.1,WNW,81.7,94.4,N/A,Fog,Light Freezing Fog,300,2004-01-16 05:45:00
1:56 AM,-43.6,-43.6,100,-9999,0.1,WNW,87.5,97.8,N/A,Fog,Light Freezing Fog,300,2004-01-16 06:56:00
2:59 AM,-41.8,-41.8,100,-9999,0.1,NW,95.5,102.4,N/A,Fog,Light Freezing Fog,310,2004-01-16 07:59:00
3:54 AM,-41.8,-41.8,100,-9999,0.1,NW,86.3,90.9,N/A,Fog,Light Freezing Fog,320,2004-01-16 08:54:00
4:52 AM,-38.2,-38.2,100,-9999,0.1,NW,86.3,103.6,N/A,Fog,Light Freezing Fog,320,2004-01-16 09:52:00
5:50 AM,-36.4,-36.4,100,-9999,0.1,NW,89.8,109.3,N/A,Fog,Light Freezing Fog,320,2004-01-16 10:50:00
6:45 AM,-36.4,-36.4,100,-9999,0.1,NW,72.5,87.5,N/A,Fog,Ice Crystals,320,2004-01-16 11:45:00
7:52 AM,-29.2,-29.2,100,-9999,0.1,NW,95.5,-,N/A,Fog-Snow,Blowing Snow,320,2004-01-16 12:52:00
8:49 AM,-29.2,-29.2,100,-9999,0.2,NNW,92.1,105.9,N/A,Fog-Snow,Blowing Snow,330,2004-01-16 13:49:00
9:50 AM,-22.0,-22.0,100,-9999,0.2,NNW,84.0,102.4,N/A,Fog,Light Freezing Fog,330,2004-01-16 14:50:00
10:49 AM,-20.2,-20.2,100,-9999,0.1,NNW,87.5,99.0,N/A,Fog,Light Freezing Fog,330,2004-01-16 15:49:00
11:49 AM,-20.2,-20.2,100,-9999,0.1,NNW,94.4,115.1,N/A,Fog,Light Freezing Fog,330,2004-01-16 16:49:00
12:49 PM,-20.2,-20.2,100,-9999,0.1,NNW,101.3,125.4,N/A,Fog,Light Freezing Fog,330,2004-01-16 17:49:00
1:55 PM,-14.8,-14.8,100,-9999,0.1,NNW,89.8,102.4,N/A,Fog,Light Freezing Fog,330,2004-01-16 18:55:00
2:49 PM,-7.6,-7.6,100,-9999,0.1,NNW,94.4,108.2,N/A,Fog,Light Freezing Fog,330,2004-01-16 19:49:00
3:51 PM,-5.8,-5.8,100,-9999,0.1,NNW,93.2,102.4,N/A,Fog,Light Freezing Fog,330,2004-01-16 20:51:00
4:50 PM,-7.6,-7.6,100,-9999,0.1,NNW,89.8,100.1,N/A,Fog,Light Freezing Fog,330,2004-01-16 21:50:00
5:50 PM,-7.6,-7.6,100,-9999,0.1,NNW,103.6,116.2,N/A,Fog,Light Freezing Fog,340,2004-01-16 22:50:00
6:50 PM,-2.2,-2.2,100,-9999,0.1,NNW,109.3,126.6,N/A,Fog,Light Freezing Fog,330,2004-01-16 23:50:00
7:59 PM,-4.0,-4.0,100,-9999,0.1,NNW,117.4,142.7,N/A,Fog,Light Freezing Fog,330,2004-01-17 00:59:00
8:53 PM,-5.8,-5.8,100,-9999,0.1,NNW,112.8,132.3,N/A,Fog,Light Freezing Fog,330,2004-01-17 01:53:00
9:51 PM,-2.2,-2.2,100,-9999,0.1,NNW,104.7,118.5,N/A,Fog,Light Freezing Fog,330,2004-01-17 02:51:00
10:56 PM,-5.8,-5.8,100,-9999,0.2,NNW,97.8,113.9,N/A,Fog,Light Freezing Fog,330,2004-01-17 03:56:00
11:57 PM,-4.0,-4.0,100,-9999,0.2,NNW,96.7,124.3,N/A,Fog,Light Freezing Fog,330,2004-01-17 04:57:00